createdAt,value
2023-03-11T00:01:41.045Z,100774.97
2023-03-11T00:06:44.488Z,100784.38
2023-03-11T00:11:49.121Z,100783.47
2023-03-11T00:16:52.264Z,100784.78
2023-03-11T00:21:55.733Z,100789.69
2023-03-11T00:27:00.111Z,100794.09
2023-03-11T00:32:06.310Z,100812.16
2023-03-11T00:37:10.139Z,100823.13
2023-03-11T00:42:14.653Z,100822.59
2023-03-11T00:47:17.964Z,100842.19
2023-03-11T00:52:21.017Z,100837.94
2023-03-11T00:57:27.867Z,100842.56
2023-03-11T01:02:31.365Z,100843.16
2023-03-11T01:07:34.779Z,100850.88
2023-03-11T01:12:44.090Z,100848.94
2023-03-11T01:17:47.183Z,100853.84
2023-03-11T01:22:50.495Z,100849.34
2023-03-11T01:27:54.940Z,100858.28
2023-03-11T01:32:59.110Z,100857.88
2023-03-11T01:38:04.792Z,100863.19
2023-03-11T01:43:47.871Z,100871.19
2023-03-11T01:49:16.927Z,100869.66
2023-03-11T01:54:23.757Z,100876.59
2023-03-11T01:59:32.119Z,100859.19
2023-03-11T02:04:37.137Z,100871.44
2023-03-11T02:09:40.225Z,100874.31
2023-03-11T02:14:48.693Z,100873.03
2023-03-11T02:20:12.261Z,100878.44
2023-03-11T02:25:26.129Z,100882.31
2023-03-11T02:30:35.086Z,100881.25
2023-03-11T02:35:39.151Z,100881.91
2023-03-11T02:40:51.842Z,100872.25
2023-03-11T02:45:58.816Z,100878.97
2023-03-11T02:51:04.612Z,100875.34
2023-03-11T02:56:08.771Z,100869.94
2023-03-11T03:01:13.406Z,100874.44
2023-03-11T03:06:19.506Z,100882.16
2023-03-11T03:11:24.664Z,100890.03
2023-03-11T03:16:29.232Z,100913.00
2023-03-11T03:21:32.536Z,100915.22
2023-03-11T03:26:35.974Z,100917.00
2023-03-11T03:31:40.917Z,100933.63
2023-03-11T03:36:44.654Z,100936.72
2023-03-11T03:41:47.956Z,100941.88
2023-03-11T03:46:53.133Z,100950.13
2023-03-11T03:51:56.347Z,100951.66
2023-03-11T03:57:07.142Z,100947.78
2023-03-11T04:02:18.737Z,100953.97
2023-03-11T04:07:21.933Z,100961.31
2023-03-11T04:12:25.219Z,100961.94
2023-03-11T04:17:29.644Z,100967.75
2023-03-11T04:22:36.239Z,100967.84
2023-03-11T04:27:42.683Z,100969.88
2023-03-11T04:32:48.030Z,100966.00
2023-03-11T04:37:51.506Z,100962.25
2023-03-11T04:42:55.145Z,100966.22
2023-03-11T04:48:00.026Z,100957.66
2023-03-11T04:53:04.277Z,100973.50
2023-03-11T04:58:07.506Z,100977.34
2023-03-11T05:03:13.712Z,100981.81
2023-03-11T05:08:20.158Z,100994.13
2023-03-11T05:13:23.345Z,100991.91
2023-03-11T05:18:31.173Z,100992.13
2023-03-11T05:23:35.817Z,100996.56
2023-03-11T05:28:39.225Z,100994.16
2023-03-11T05:33:44.808Z,100993.41
2023-03-11T05:38:49.996Z,101001.72
2023-03-11T05:43:53.255Z,101011.94
2023-03-11T05:48:58.127Z,101017.31
2023-03-11T05:54:04.002Z,101019.59
2023-03-11T05:59:16.475Z,101027.78
2023-03-11T06:04:23.273Z,101028.69
2023-03-11T06:09:26.718Z,101048.09
2023-03-11T06:14:31.820Z,101047.66
2023-03-11T06:19:38.476Z,101042.06
2023-03-11T06:24:42.720Z,101051.00
2023-03-11T06:29:48.773Z,101069.28
2023-03-11T06:34:54.743Z,101070.19
2023-03-11T06:39:59.217Z,101080.63
2023-03-11T06:45:04.130Z,101085.94
2023-03-11T06:50:09.700Z,101082.84
2023-03-11T06:55:13.489Z,101091.78
2023-03-11T07:00:18.778Z,101099.16
2023-03-11T07:05:29.401Z,101101.41
2023-03-11T07:10:37.531Z,101108.78
2023-03-11T07:15:40.949Z,101109.22
2023-03-11T07:20:45.564Z,101115.19
2023-03-11T07:25:49.133Z,101115.31
2023-03-11T07:30:52.956Z,101132.75
2023-03-11T07:35:57.333Z,101132.81
2023-03-11T07:41:00.471Z,101142.44
2023-03-11T07:46:07.671Z,101153.47
2023-03-11T07:51:16.912Z,101159.56
2023-03-11T07:56:21.436Z,101170.56
2023-03-11T08:01:26.383Z,101152.72
2023-03-11T08:06:32.591Z,101162.91
2023-03-11T08:11:36.128Z,101171.84
2023-03-11T08:16:40.907Z,101172.28
2023-03-11T08:21:45.445Z,101173.06
2023-03-11T08:26:48.687Z,101184.97
2023-03-11T08:31:51.876Z,101182.69
2023-03-11T08:36:56.310Z,101182.84
2023-03-11T08:41:59.889Z,101193.31
2023-03-11T08:47:03.110Z,101196.44
2023-03-11T08:52:08.096Z,101197.47
2023-03-11T08:57:11.344Z,101189.09
2023-03-11T09:02:14.840Z,101194.28
2023-03-11T09:07:19.586Z,101212.47
2023-03-11T09:12:22.728Z,101223.03
2023-03-11T09:17:25.800Z,101227.22
2023-03-11T09:22:30.586Z,101220.75
2023-03-11T09:27:36.356Z,101220.91
2023-03-11T09:32:39.608Z,101225.09
2023-03-11T09:37:44.557Z,101211.66
2023-03-11T09:42:58.752Z,101217.56
2023-03-11T09:48:22.906Z,101213.06
2023-03-11T09:53:41.768Z,101214.75
2023-03-11T09:58:48.041Z,101221.63
2023-03-11T10:03:53.033Z,101234.38
2023-03-11T10:09:04.542Z,101243.47
2023-03-11T10:14:17.088Z,101220.78
2023-03-11T10:19:32.088Z,101234.47
2023-03-11T10:24:51.567Z,101233.38
2023-03-11T10:30:06.240Z,101236.06
2023-03-11T10:35:18.156Z,101240.56
2023-03-11T10:40:29.687Z,101227.63
2023-03-11T10:45:41.401Z,101235.91
2023-03-11T10:50:53.380Z,101237.50
2023-03-11T10:55:59.497Z,101236.59
2023-03-11T11:01:05.872Z,101238.78
2023-03-11T11:06:21.965Z,101238.59
2023-03-11T11:11:26.343Z,101235.19
2023-03-11T11:16:30.403Z,101250.56
2023-03-11T11:21:35.932Z,101247.44
2023-03-11T11:26:40.433Z,101237.84
2023-03-11T11:31:46.088Z,101246.84
2023-03-11T11:36:49.430Z,101244.88
2023-03-11T11:41:54.394Z,101247.94
2023-03-11T11:47:01.063Z,101244.94
2023-03-11T11:52:10.759Z,101244.41
2023-03-11T11:57:16.932Z,101252.22
2023-03-11T12:02:43.215Z,101230.66
2023-03-11T12:08:01.743Z,101248.91
2023-03-11T12:13:29.158Z,101221.91
2023-03-11T12:18:37.838Z,101227.09
2023-03-11T12:23:55.157Z,101242.84
2023-03-11T12:29:05.438Z,101238.31
2023-03-11T12:34:12.387Z,101228.88
2023-03-11T12:39:24.945Z,101222.94
2023-03-11T12:44:31.735Z,101227.97
2023-03-11T12:49:37.428Z,101233.94
2023-03-11T12:54:41.961Z,101225.34
2023-03-11T13:00:15.077Z,101233.50
2023-03-11T13:05:24.932Z,101227.16
2023-03-11T13:10:40.567Z,101218.66
2023-03-11T13:15:45.249Z,101213.91
2023-03-11T13:20:59.352Z,101218.03
2023-03-11T13:26:31.561Z,101220.16
2023-03-11T13:31:55.846Z,101213.06
2023-03-11T13:37:16.859Z,101213.78
2023-03-11T13:42:27.903Z,101214.94
2023-03-11T13:47:33.584Z,101209.34
2023-03-11T13:52:40.682Z,101211.16
2023-03-11T13:57:51.538Z,101213.44
2023-03-11T14:02:58.047Z,101214.97
2023-03-11T14:08:14.463Z,101216.03
2023-03-11T14:13:47.452Z,101218.19
2023-03-11T14:19:15.398Z,101221.16
2023-03-11T14:24:21.313Z,101237.59
2023-03-11T14:29:32.323Z,101233.06
2023-03-11T14:34:42.685Z,101178.91
2023-03-11T14:39:47.644Z,101210.75
2023-03-11T14:45:19.592Z,101247.56
2023-03-11T14:50:26.098Z,101233.03
2023-03-11T14:55:33.833Z,101233.47
2023-03-11T15:00:41.558Z,101234.78
2023-03-11T15:05:49.883Z,101229.88
2023-03-11T15:11:17.314Z,101221.94
2023-03-11T15:16:27.104Z,101227.72
2023-03-11T15:21:33.197Z,101234.44
2023-03-11T15:26:38.333Z,101229.88
2023-03-11T15:31:42.727Z,101228.38
2023-03-11T15:36:57.444Z,101231.88
2023-03-11T15:48:53.128Z,101178.94
2023-03-11T15:54:18.189Z,101130.75
2023-03-11T15:59:21.423Z,101191.38
2023-03-11T16:04:24.718Z,101221.13
2023-03-11T16:09:31.608Z,101226.25
2023-03-11T16:14:34.696Z,101220.22
2023-03-11T16:19:37.929Z,101213.84
2023-03-11T16:24:43.652Z,101221.47
2023-03-11T16:29:47.625Z,101209.81
2023-03-11T16:34:50.777Z,101209.06
2023-03-11T16:39:58.627Z,101220.97
2023-03-11T16:45:03.902Z,101202.78
2023-03-11T16:50:11.826Z,101216.13
2023-03-11T16:55:19.683Z,101215.00
2023-03-11T17:00:24.490Z,101224.16
2023-03-11T17:05:27.776Z,101213.41
2023-03-11T17:10:38.139Z,101225.41
2023-03-11T17:15:44.366Z,101199.69
2023-03-11T17:20:47.499Z,101211.66
2023-03-11T17:25:52.246Z,101221.19
2023-03-11T17:30:55.720Z,101216.81
2023-03-11T17:36:05.093Z,101220.06
2023-03-11T17:41:10.250Z,101222.13
2023-03-11T17:46:15.534Z,101223.31
2023-03-11T17:51:21.205Z,101234.22
2023-03-11T17:56:26.479Z,101228.56
2023-03-11T18:01:30.466Z,101239.63
2023-03-11T18:06:33.886Z,101230.44
2023-03-11T18:11:38.530Z,101245.28
2023-03-11T18:16:41.710Z,101254.00
2023-03-11T18:21:45.619Z,101262.94
2023-03-11T18:26:50.159Z,101263.31
2023-03-11T18:31:55.183Z,101258.88
2023-03-11T18:36:58.540Z,101271.84
2023-03-11T18:42:05.440Z,101272.59
2023-03-11T18:47:08.975Z,101264.84
2023-03-11T18:52:12.130Z,101273.81
2023-03-11T18:57:20.118Z,101271.69
2023-03-11T19:02:23.321Z,101266.22
2023-03-11T19:07:26.532Z,101281.25
2023-03-11T19:12:33.808Z,101281.19
2023-03-11T19:17:36.998Z,101276.00
2023-03-11T19:22:47.791Z,101273.75
2023-03-11T19:27:52.422Z,101278.50
2023-03-11T19:32:55.785Z,101269.34
2023-03-11T19:37:59.500Z,101255.59
2023-03-11T19:43:06.579Z,101271.53
2023-03-11T19:48:13.373Z,101274.44
2023-03-11T19:53:16.946Z,101261.91
2023-03-11T19:58:23.973Z,101270.41
2023-03-11T20:03:27.911Z,101266.56
2023-03-11T20:08:36.426Z,101270.50
2023-03-11T20:13:44.064Z,101271.97
2023-03-11T20:18:50.219Z,101265.78
2023-03-11T20:23:55.194Z,101263.38
2023-03-11T20:29:00.142Z,101271.63
2023-03-11T20:34:05.883Z,101277.34
2023-03-11T20:39:11.527Z,101275.09
2023-03-11T20:44:16.298Z,101259.31
2023-03-11T20:49:19.403Z,101264.34
2023-03-11T20:54:22.485Z,101272.56
2023-03-11T20:59:27.212Z,101258.13
2023-03-11T21:04:30.386Z,101257.47
2023-03-11T21:09:33.740Z,101250.94
2023-03-11T21:14:38.854Z,101261.25
2023-03-11T21:19:42.227Z,101251.41
2023-03-11T21:24:46.002Z,101256.81
2023-03-11T21:29:50.704Z,101246.13
2023-03-11T21:34:57.405Z,101245.78
2023-03-11T21:40:00.756Z,101244.19
2023-03-11T21:45:09.539Z,101244.19
2023-03-11T21:50:13.733Z,101250.31
2023-03-11T21:55:17.364Z,101237.31
2023-03-11T22:00:22.576Z,101242.75
2023-03-11T22:05:26.309Z,101240.25
2023-03-11T22:10:29.723Z,101228.75
2023-03-11T22:15:34.697Z,101216.88
2023-03-11T22:20:42.652Z,101230.44
2023-03-11T22:25:46.191Z,101228.84
2023-03-11T22:30:50.950Z,101222.88
2023-03-11T22:35:56.174Z,101219.94
2023-03-11T22:41:00.395Z,101206.84
2023-03-11T22:46:08.015Z,101208.53
2023-03-11T22:51:11.336Z,101198.16
2023-03-11T22:56:19.620Z,101195.44
2023-03-11T23:01:24.174Z,101202.22
2023-03-11T23:06:27.518Z,101196.25
2023-03-11T23:11:30.736Z,101190.00
2023-03-11T23:16:35.249Z,101182.81
2023-03-11T23:21:38.857Z,101183.50
2023-03-11T23:26:41.882Z,101177.06
2023-03-11T23:31:46.618Z,101192.50
2023-03-11T23:36:49.798Z,101184.84
2023-03-11T23:41:52.839Z,101182.81
2023-03-11T23:46:57.506Z,101181.44
2023-03-11T23:52:00.754Z,101180.53
2023-03-11T23:57:06.346Z,101170.16
